Time;durP1;ratioP1;P1;durP2;ratioP2;P2;SDS_P1;SDS_P2;PMS_P1;PMS_P2;Temp;Humidity;BMP_temperature;BMP_pressure;BME280_temperature;BME280_humidity;BME280_pressure;Samples;Min_cycle;Max_cycle;Signal;HPM_P1;HPM_P2
2022/12/26 00:01:44;;;;;;;5.35;2.50;;;;;;;;;;5116257;28;20443;-77
2022/12/26 00:04:09;;;;;;;3.83;2.38;;;;;;;;;;5116137;28;20032;-77
2022/12/26 00:06:35;;;;;;;2.85;2.20;;;;;;;;;;5116157;28;20108;-77
2022/12/26 00:09:02;;;;;;;4.32;2.40;;;;;;;;;;5116176;28;20103;-77
2022/12/26 00:11:28;;;;;;;3.65;2.35;;;;;;;;;;5114853;28;20458;-77
2022/12/26 00:14:00;;;;;;;3.78;2.40;;;;;;;;;;5080641;28;20032;-77
2022/12/26 00:16:26;;;;;;;2.45;2.17;;;;;;;;;;5114817;28;20031;-76
2022/12/26 00:18:52;;;;;;;2.95;2.10;;;;;;;;;;5097327;28;20059;-76
2022/12/26 00:21:18;;;;;;;2.63;2.10;;;;;;;;;;5114413;28;20089;-76
2022/12/26 00:23:44;;;;;;;3.38;2.30;;;;;;;;;;5114598;28;20369;-77
2022/12/26 00:26:12;;;;;;;4.50;2.58;;;;;;;;;;5115894;28;20024;-77
2022/12/26 00:28:38;;;;;;;3.85;2.22;;;;;;;;;;5114333;28;20122;-77
2022/12/26 00:31:05;;;;;;;4.97;2.00;;;;;;;;;;5114326;28;20149;-77
2022/12/26 00:33:30;;;;;;;2.92;2.30;;;;;;;;;;5097148;28;20035;-77
2022/12/26 00:36:16;;;;;;;2.13;1.92;;;;;;;;;;5115514;28;20028;-77
2022/12/26 00:38:42;;;;;;;6.20;2.10;;;;;;;;;;5114232;28;20051;-77
2022/12/26 00:41:09;;;;;;;10.15;2.28;;;;;;;;;;5114117;28;20032;-77
2022/12/26 00:43:35;;;;;;;8.23;2.15;;;;;;;;;;5097039;28;20023;-78
2022/12/26 00:46:01;;;;;;;2.20;2.00;;;;;;;;;;5096912;28;20040;-77
2022/12/26 00:48:27;;;;;;;2.33;2.10;;;;;;;;;;5113929;28;20498;-78
2022/12/26 00:50:52;;;;;;;2.30;2.10;;;;;;;;;;5113994;28;20031;-77
2022/12/26 00:53:18;;;;;;;3.25;2.17;;;;;;;;;;5113851;28;20423;-77
2022/12/26 00:55:43;;;;;;;2.60;2.28;;;;;;;;;;5115188;28;20024;-78
2022/12/26 00:58:09;;;;;;;2.30;1.95;;;;;;;;;;5115001;28;20031;-77
2022/12/26 01:00:35;;;;;;;3.03;2.28;;;;;;;;;;5113633;28;20077;-77
2022/12/26 01:03:01;;;;;;;2.30;2.10;;;;;;;;;;5097310;28;20101;-78
2022/12/26 01:05:26;;;;;;;3.97;2.50;;;;;;;;;;5113744;28;20035;-77
2022/12/26 01:07:51;;;;;;;2.35;2.15;;;;;;;;;;5113845;28;20038;-78
2022/12/26 01:10:17;;;;;;;2.40;2.20;;;;;;;;;;5113842;28;20053;-77
2022/12/26 01:12:42;;;;;;;2.47;2.00;;;;;;;;;;5113716;28;20032;-77
2022/12/26 01:15:08;;;;;;;2.63;2.00;;;;;;;;;;5114933;28;20462;-77
2022/12/26 01:17:33;;;;;;;2.30;2.10;;;;;;;;;;5114652;28;20110;-78
2022/12/26 01:19:59;;;;;;;3.50;2.30;;;;;;;;;;5113320;28;20030;-78
2022/12/26 01:22:25;;;;;;;2.50;2.30;;;;;;;;;;5114454;28;20023;-78
2022/12/26 01:24:55;;;;;;;2.30;2.10;;;;;;;;;;5113269;28;20051;-77
2022/12/26 01:27:21;;;;;;;2.10;1.90;;;;;;;;;;5114415;28;20067;-77
2022/12/26 01:29:47;;;;;;;2.70;2.20;;;;;;;;;;5114396;28;20053;-77
2022/12/26 01:32:12;;;;;;;4.05;2.63;;;;;;;;;;5114895;28;20378;-77
2022/12/26 01:34:37;;;;;;;2.33;2.13;;;;;;;;;;5114388;28;20032;-78
2022/12/26 01:37:03;;;;;;;2.17;1.98;;;;;;;;;;5114576;28;20494;-78
2022/12/26 01:39:28;;;;;;;2.22;2.03;;;;;;;;;;5113214;28;20027;-78
2022/12/26 01:41:54;;;;;;;2.67;2.17;;;;;;;;;;5095570;28;20420;-78
2022/12/26 01:44:57;;;;;;;3.40;2.20;;;;;;;;;;5112916;28;20032;-78
2022/12/26 01:47:33;;;;;;;2.20;2.00;;;;;;;;;;5114038;28;20069;-78
2022/12/26 01:49:59;;;;;;;2.20;2.00;;;;;;;;;;5114574;28;20026;-78
2022/12/26 01:52:44;;;;;;;2.30;2.10;;;;;;;;;;5095782;28;20122;-77
2022/12/26 01:55:11;;;;;;;2.13;1.92;;;;;;;;;;5112683;28;20081;-78
2022/12/26 01:57:41;;;;;;;2.17;1.98;;;;;;;;;;5095645;28;20080;-78
2022/12/26 02:00:07;;;;;;;2.08;1.92;;;;;;;;;;5112899;28;20485;-78
2022/12/26 02:05:32;;;;;;;2.08;1.80;;;;;;;;;;5112833;28;20032;-77
2022/12/26 02:05:33;;;;;;;2.40;2.20;;;;;;;;;;5112727;28;20482;-77
2022/12/26 02:08:07;;;;;;;2.13;1.92;;;;;;;;;;5113758;28;20037;-77
2022/12/26 02:10:34;;;;;;;;;;;;;;;;;;5113474;28;20065;-76
2022/12/26 02:13:00;;;;;;;2.20;1.83;;;;;;;;;;5112474;28;20431;-77
2022/12/26 02:15:26;;;;;;;2.25;2.05;;;;;;;;;;5113937;28;20076;-77
2022/12/26 02:17:51;;;;;;;2.42;2.13;;;;;;;;;;5112476;28;20023;-77
2022/12/26 02:20:22;;;;;;;2.47;2.22;;;;;;;;;;5113806;28;20131;-78
2022/12/26 02:23:10;;;;;;;2.83;2.00;;;;;;;;;;5112307;28;20066;-78
2022/12/26 02:26:01;;;;;;;2.78;1.90;;;;;;;;;;5105137;28;20031;-78
2022/12/26 02:28:32;;;;;;;2.85;2.30;;;;;;;;;;5112404;28;20031;-79
2022/12/26 02:31:25;;;;;;;2.95;2.58;;;;;;;;;;5113337;28;20051;-78
2022/12/26 02:34:13;;;;;;;2.33;2.13;;;;;;;;;;5114033;28;20056;-77
2022/12/26 02:36:53;;;;;;;2.25;2.05;;;;;;;;;;5112272;28;20110;-77
2022/12/26 02:39:24;;;;;;;2.50;2.30;;;;;;;;;;5112087;28;20019;-77
2022/12/26 02:42:05;;;;;;;3.47;2.47;;;;;;;;;;5113376;28;20508;-77
2022/12/26 02:47:38;;;;;;;2.70;2.40;;;;;;;;;;5112341;28;20537;-77
2022/12/26 03:14:10;;;;;;;4.63;2.63;;;;;;;;;;5117368;28;20526;-78
2022/12/26 03:19:20;;;;;;;;;;;;;;;;;;5116286;28;20030;-76
2022/12/26 03:21:46;;;;;;;3.30;2.40;;;;;;;;;;5115779;28;19911;-79
2022/12/26 03:24:14;;;;;;;3.15;2.38;;;;;;;;;;5098640;28;20300;-78
2022/12/26 03:26:47;;;;;;;2.65;2.30;;;;;;;;;;5116176;28;20482;-78
2022/12/26 03:32:06;;;;;;;3.03;2.63;;;;;;;;;;5115944;28;20047;-78
2022/12/26 03:34:33;;;;;;;4.53;2.60;;;;;;;;;;5115700;28;20209;-79
2022/12/26 03:37:01;;;;;;;2.60;2.40;;;;;;;;;;5115803;28;20520;-78
2022/12/26 04:46:23;;;;;;;2.33;2.13;;;;;;;;;;5115577;28;20088;-78
2022/12/26 04:51:34;;;;;;;2.78;2.55;;;;;;;;;;5114396;28;20030;-77
2022/12/26 04:54:00;;;;;;;2.47;2.05;;;;;;;;;;5113963;28;20032;-77
2022/12/26 04:56:25;;;;;;;2.40;2.20;;;;;;;;;;5115293;28;20470;-77
2022/12/26 04:58:50;;;;;;;2.97;2.55;;;;;;;;;;5115023;28;20095;-77
2022/12/26 05:09:33;;;;;;;2.42;2.17;;;;;;;;;;5114557;28;20080;-77
2022/12/26 05:12:03;;;;;;;2.25;2.05;;;;;;;;;;5115182;28;20046;-77
2022/12/26 05:14:30;;;;;;;2.50;2.30;;;;;;;;;;5114232;28;20051;-77
2022/12/26 05:30:57;;;;;;;3.28;2.30;;;;;;;;;;5113915;28;20111;-77
2022/12/26 05:36:07;;;;;;;2.70;2.30;;;;;;;;;;5114045;28;20382;-77
2022/12/26 05:38:33;;;;;;;3.22;2.10;;;;;;;;;;5113992;28;20028;-77
2022/12/26 05:40:58;;;;;;;7.57;2.50;;;;;;;;;;5113447;28;20103;-77
2022/12/26 05:43:24;;;;;;;4.28;2.20;;;;;;;;;;5114835;27;20036;-77
2022/12/26 05:45:49;;;;;;;2.47;2.28;;;;;;;;;;5114849;28;20058;-77
2022/12/26 05:48:14;;;;;;;3.53;2.30;;;;;;;;;;5114506;28;20039;-77
2022/12/26 05:50:40;;;;;;;2.20;2.00;;;;;;;;;;5114727;28;20505;-77
2022/12/26 05:53:05;;;;;;;2.67;2.33;;;;;;;;;;5113044;28;20085;-77
2022/12/26 05:55:30;;;;;;;1.92;1.83;;;;;;;;;;5096009;28;20028;-77
2022/12/26 05:57:58;;;;;;;2.28;2.00;;;;;;;;;;5114622;28;20382;-77
2022/12/26 06:00:24;;;;;;;2.20;2.00;;;;;;;;;;5113626;28;20030;-77
2022/12/26 06:02:49;;;;;;;2.53;2.08;;;;;;;;;;5113212;28;20130;-77
2022/12/26 06:05:15;;;;;;;2.20;2.00;;;;;;;;;;5113053;28;20032;-78
2022/12/26 06:07:40;;;;;;;2.35;2.15;;;;;;;;;;5114438;28;20111;-78
2022/12/26 06:10:06;;;;;;;2.25;2.05;;;;;;;;;;5114433;28;20026;-78
2022/12/26 06:12:32;;;;;;;1.95;1.83;;;;;;;;;;5112792;28;20523;-78
2022/12/26 06:14:58;;;;;;;2.80;1.95;;;;;;;;;;5112812;28;20402;-77
2022/12/26 06:17:23;;;;;;;2.28;1.90;;;;;;;;;;5112856;28;20032;-77
2022/12/26 06:19:48;;;;;;;2.47;2.20;;;;;;;;;;5113287;28;20394;-77
2022/12/26 06:22:14;;;;;;;2.25;2.05;;;;;;;;;;5114262;28;20032;-78
2022/12/26 06:24:39;;;;;;;2.25;1.90;;;;;;;;;;5114298;28;20386;-78
2022/12/26 06:27:04;;;;;;;2.67;2.15;;;;;;;;;;5114023;28;20032;-78
2022/12/26 06:29:30;;;;;;;2.10;1.90;;;;;;;;;;5112720;28;20110;-77
2022/12/26 06:31:55;;;;;;;2.30;2.10;;;;;;;;;;5112842;28;20043;-77
2022/12/26 06:34:22;;;;;;;2.10;1.60;;;;;;;;;;5095644;28;20028;-77
2022/12/26 06:36:47;;;;;;;1.92;1.80;;;;;;;;;;5078899;28;20023;-77
2022/12/26 06:39:12;;;;;;;1.67;1.58;;;;;;;;;;5113977;28;20087;-77
2022/12/26 06:41:38;;;;;;;1.92;1.80;;;;;;;;;;5113760;28;20069;-78
2022/12/26 06:44:03;;;;;;;1.92;1.83;;;;;;;;;;5112554;28;20039;-77
2022/12/26 06:46:29;;;;;;;2.63;1.80;;;;;;;;;;5112478;28;20032;-77
2022/12/26 06:48:54;;;;;;;2.25;1.70;;;;;;;;;;5112204;28;20059;-78
2022/12/26 06:51:24;;;;;;;2.13;1.70;;;;;;;;;;5113697;28;20055;-77
2022/12/26 06:53:51;;;;;;;3.20;1.70;;;;;;;;;;5112443;28;20020;-77
2022/12/26 06:56:22;;;;;;;1.70;1.60;;;;;;;;;;5112254;28;20023;-77
2022/12/26 06:58:52;;;;;;;3.75;1.70;;;;;;;;;;5113930;28;20515;-77
2022/12/26 07:01:20;;;;;;;2.25;1.65;;;;;;;;;;5112927;28;20531;-77
2022/12/26 07:03:46;;;;;;;2.38;1.70;;;;;;;;;;5116043;28;20046;-77
2022/12/26 07:06:19;;;;;;;1.40;1.30;;;;;;;;;;5095671;28;20027;-76
2022/12/26 07:08:45;;;;;;;1.70;1.60;;;;;;;;;;5112939;28;20032;-77
2022/12/26 07:11:17;;;;;;;1.70;1.60;;;;;;;;;;5095285;28;20039;-77
2022/12/26 07:13:43;;;;;;;1.48;1.38;;;;;;;;;;5095257;28;20111;-77
2022/12/26 07:16:09;;;;;;;1.40;1.30;;;;;;;;;;5112251;28;20115;-77
2022/12/26 07:18:35;;;;;;;2.05;1.60;;;;;;;;;;5113721;28;20035;-77
2022/12/26 07:21:04;;;;;;;2.38;1.45;;;;;;;;;;5112141;28;20516;-78
2022/12/26 07:23:30;;;;;;;1.23;1.20;;;;;;;;;;5112078;28;20027;-78
2022/12/26 07:25:56;;;;;;;1.52;1.40;;;;;;;;;;5113414;28;20110;-77
2022/12/26 07:28:21;;;;;;;1.40;1.30;;;;;;;;;;5113508;28;20035;-78
2022/12/26 07:30:47;;;;;;;1.40;1.30;;;;;;;;;;5112447;28;20382;-78
2022/12/26 07:33:13;;;;;;;2.15;1.40;;;;;;;;;;5113770;28;20104;-78
2022/12/26 07:35:38;;;;;;;3.35;1.52;;;;;;;;;;5113801;28;20066;-78
2022/12/26 07:38:03;;;;;;;1.25;1.15;;;;;;;;;;5113703;28;20027;-78
2022/12/26 07:40:29;;;;;;;2.42;1.30;;;;;;;;;;5114274;28;20118;-78
2022/12/26 07:42:54;;;;;;;1.25;1.15;;;;;;;;;;5117115;28;20038;-77
2022/12/26 07:45:19;;;;;;;2.55;1.30;;;;;;;;;;5115909;28;20036;-77
2022/12/26 07:47:45;;;;;;;1.30;1.13;;;;;;;;;;5116773;28;20139;-77
2022/12/26 07:50:10;;;;;;;1.17;1.10;;;;;;;;;;5098459;28;20371;-77
2022/12/26 07:52:35;;;;;;;1.67;1.15;;;;;;;;;;5116772;28;20055;-78
2022/12/26 07:55:03;;;;;;;1.92;1.30;;;;;;;;;;5116552;28;20110;-77
2022/12/26 07:57:28;;;;;;;10.70;3.45;;;;;;;;;;5116916;28;20031;-79
2022/12/26 07:59:54;;;;;;;4.28;2.30;;;;;;;;;;5110334;27;20038;-78
2022/12/26 08:02:19;;;;;;;3.35;1.80;;;;;;;;;;5105115;28;20035;-78
2022/12/26 08:04:44;;;;;;;1.83;1.50;;;;;;;;;;5106150;28;20390;-79
2022/12/26 08:07:10;;;;;;;3.25;1.75;;;;;;;;;;5104619;27;20032;-78
2022/12/26 08:09:35;;;;;;;3.83;1.60;;;;;;;;;;5106742;28;20481;-78
2022/12/26 08:12:00;;;;;;;3.20;1.65;;;;;;;;;;5105504;28;20030;-78
2022/12/26 08:14:26;;;;;;;4.55;1.60;;;;;;;;;;5101393;28;20070;-78
2022/12/26 08:16:51;;;;;;;3.38;1.55;;;;;;;;;;5094769;28;20032;-78
2022/12/26 08:19:16;;;;;;;3.10;1.55;;;;;;;;;;5094941;28;20024;-78
2022/12/26 08:21:42;;;;;;;4.60;1.60;;;;;;;;;;5096240;28;20024;-78
2022/12/26 08:24:07;;;;;;;5.30;1.45;;;;;;;;;;5096281;28;20463;-78
2022/12/26 08:26:33;;;;;;;3.33;1.48;;;;;;;;;;5095502;28;20046;-78
2022/12/26 08:28:58;;;;;;;4.13;1.65;;;;;;;;;;5094477;28;20559;-78
2022/12/26 08:31:23;;;;;;;2.95;1.42;;;;;;;;;;5094242;28;20028;-78
2022/12/26 08:33:49;;;;;;;2.95;1.65;;;;;;;;;;5095622;28;20114;-78
2022/12/26 08:36:17;;;;;;;7.47;1.60;;;;;;;;;;5095416;28;20032;-78
2022/12/26 08:38:42;;;;;;;3.38;1.20;;;;;;;;;;5095463;28;20440;-78
2022/12/26 08:41:07;;;;;;;6.25;1.52;;;;;;;;;;5094197;28;20020;-78
2022/12/26 08:43:33;;;;;;;5.50;1.40;;;;;;;;;;5094595;28;20089;-78
2022/12/26 08:46:01;;;;;;;1.50;1.30;;;;;;;;;;5077247;28;20474;-78
2022/12/26 08:48:27;;;;;;;3.03;1.40;;;;;;;;;;5077305;28;20048;-77
2022/12/26 08:51:02;;;;;;;4.07;1.30;;;;;;;;;;5077497;28;20052;-78
2022/12/26 08:53:28;;;;;;;;;;;;;;;;;;5094436;28;20115;-77
2022/12/26 08:55:54;;;;;;;4.20;1.10;;;;;;;;;;5094473;28;20418;-78
2022/12/26 08:58:19;;;;;;;2.20;1.10;;;;;;;;;;5076974;28;20528;-79
2022/12/26 09:00:45;;;;;;;4.60;1.38;;;;;;;;;;5094991;28;20103;-79
2022/12/26 09:03:10;;;;;;;2.28;1.15;;;;;;;;;;5077056;28;20032;-79
2022/12/26 09:05:35;;;;;;;3.28;1.33;;;;;;;;;;5093838;28;20085;-79
2022/12/26 09:08:01;;;;;;;1.20;1.10;;;;;;;;;;5076716;28;20119;-79
2022/12/26 09:10:26;;;;;;;3.97;1.25;;;;;;;;;;5094820;28;20030;-79
2022/12/26 09:12:51;;;;;;;3.30;1.13;;;;;;;;;;5094821;28;20031;-78
2022/12/26 09:15:17;;;;;;;1.85;1.10;;;;;;;;;;5093538;28;20395;-78
2022/12/26 09:17:42;;;;;;;3.50;1.00;;;;;;;;;;5094662;28;20053;-78
2022/12/26 09:20:08;;;;;;;2.67;1.30;;;;;;;;;;5093687;28;20024;-79
2022/12/26 09:22:49;;;;;;;1.77;1.20;;;;;;;;;;5094756;28;20479;-79
2022/12/26 09:25:14;;;;;;;2.13;1.02;;;;;;;;;;5078896;28;20051;-79
2022/12/26 09:27:40;;;;;;;5.68;1.35;;;;;;;;;;5093263;28;20491;-79
2022/12/26 09:30:05;;;;;;;4.43;1.40;;;;;;;;;;5093200;28;20363;-79
2022/12/26 09:32:33;;;;;;;1.80;1.20;;;;;;;;;;5093106;28;20127;-76
2022/12/26 09:34:58;;;;;;;3.38;1.10;;;;;;;;;;5093087;28;20119;-76
2022/12/26 09:37:23;;;;;;;2.45;1.20;;;;;;;;;;5094266;28;20169;-78
2022/12/26 09:39:49;;;;;;;2.17;1.00;;;;;;;;;;5093266;28;20145;-77
2022/12/26 09:42:56;;;;;;;4.25;1.27;;;;;;;;;;5094269;28;20157;-77
2022/12/26 09:45:31;;;;;;;9.50;1.10;;;;;;;;;;5012135;28;20488;-80
2022/12/26 09:48:08;;;;;;;2.97;1.10;;;;;;;;;;4996186;28;20080;-81
2022/12/26 09:50:39;;;;;;;5.55;1.25;;;;;;;;;;5055795;28;20047;-80
2022/12/26 09:53:07;;;;;;;2.75;1.25;;;;;;;;;;5092959;28;20446;-81
2022/12/26 09:55:53;;;;;;;6.60;1.40;;;;;;;;;;5092991;28;20363;-80
2022/12/26 09:58:30;;;;;;;4.53;1.30;;;;;;;;;;5092637;28;20024;-79
2022/12/26 10:01:12;;;;;;;2.35;1.10;;;;;;;;;;5092760;28;20179;-78
2022/12/26 10:03:49;;;;;;;5.05;1.63;;;;;;;;;;5075274;28;20118;-78
2022/12/26 10:06:19;;;;;;;5.78;1.42;;;;;;;;;;5092984;28;20031;-79
2022/12/26 10:09:02;;;;;;;4.03;1.20;;;;;;;;;;5094105;28;20463;-79
2022/12/26 10:11:55;;;;;;;2.30;1.52;;;;;;;;;;5093824;28;20047;-79
2022/12/26 10:14:44;;;;;;;3.80;1.58;;;;;;;;;;5093674;28;20020;-80
2022/12/26 10:17:27;;;;;;;3.22;1.40;;;;;;;;;;5093508;28;20544;-79
2022/12/26 10:20:55;;;;;;;2.92;1.50;;;;;;;;;;5093538;28;20060;-79
2022/12/26 10:23:32;;;;;;;5.90;1.10;;;;;;;;;;5071076;28;20035;-79
2022/12/26 10:26:25;;;;;;;5.35;1.63;;;;;;;;;;5054483;28;20028;-79
2022/12/26 10:28:55;;;;;;;3.88;1.45;;;;;;;;;;5071209;28;20497;-79
2022/12/26 10:31:37;;;;;;;5.90;1.85;;;;;;;;;;5037570;28;20028;-79
2022/12/26 10:34:33;;;;;;;6.85;1.60;;;;;;;;;;5037845;28;20033;-80
2022/12/26 10:37:17;;;;;;;6.13;1.33;;;;;;;;;;5038805;28;20039;-80
2022/12/26 10:39:58;;;;;;;7.45;1.88;;;;;;;;;;5070546;28;20103;-80
2022/12/26 10:42:30;;;;;;;7.43;1.38;;;;;;;;;;5037372;28;20035;-80
2022/12/26 10:44:57;;;;;;;3.75;1.42;;;;;;;;;;5054576;28;20032;-80
2022/12/26 10:47:33;;;;;;;2.97;1.20;;;;;;;;;;5054737;28;20545;-80
2022/12/26 10:49:59;;;;;;;5.97;1.35;;;;;;;;;;5054754;28;20152;-80
2022/12/26 10:52:32;;;;;;;5.28;1.23;;;;;;;;;;5071029;28;20059;-80
2022/12/26 10:54:58;;;;;;;6.97;1.67;;;;;;;;;;5086512;28;20057;-80
2022/12/26 10:57:27;;;;;;;3.95;1.10;;;;;;;;;;5075232;28;20407;-81
2022/12/26 10:59:53;;;;;;;3.25;1.40;;;;;;;;;;5091964;28;20056;-80
2022/12/26 11:02:28;;;;;;;3.33;1.45;;;;;;;;;;5092818;28;20078;-81
2022/12/26 11:05:00;;;;;;;6.28;1.70;;;;;;;;;;5091926;28;20035;-81
2022/12/26 11:07:32;;;;;;;3.83;1.42;;;;;;;;;;5093441;28;20024;-80
2022/12/26 11:09:58;;;;;;;3.25;1.35;;;;;;;;;;5092001;28;20020;-80
2022/12/26 11:12:37;;;;;;;9.45;1.50;;;;;;;;;;5092054;28;20393;-80
2022/12/26 11:15:06;;;;;;;3.13;1.60;;;;;;;;;;5093842;28;20023;-80
2022/12/26 11:17:34;;;;;;;6.20;1.52;;;;;;;;;;5079147;28;20042;-81
2022/12/26 11:20:14;;;;;;;3.40;1.20;;;;;;;;;;5095760;28;20028;-80
2022/12/26 11:22:44;;;;;;;3.03;1.35;;;;;;;;;;5095660;28;20035;-80
2022/12/26 11:25:11;;;;;;;3.30;1.27;;;;;;;;;;5096029;28;20223;-80
2022/12/26 11:27:42;;;;;;;4.63;1.55;;;;;;;;;;5095941;28;20023;-79
2022/12/26 11:30:29;;;;;;;4.85;1.65;;;;;;;;;;5078617;28;20024;-79
2022/12/26 11:33:16;;;;;;;6.07;1.40;;;;;;;;;;5095532;28;20386;-80
2022/12/26 11:35:48;;;;;;;4.85;1.50;;;;;;;;;;5097200;28;20104;-78
2022/12/26 11:38:33;;;;;;;2.80;1.30;;;;;;;;;;5095468;28;20412;-78
2022/12/26 11:41:38;;;;;;;3.50;1.58;;;;;;;;;;5096565;28;20035;-80
2022/12/26 11:44:09;;;;;;;4.97;1.52;;;;;;;;;;5098127;28;20032;-81
2022/12/26 11:46:41;;;;;;;3.00;1.17;;;;;;;;;;5104192;28;20024;-79
2022/12/26 11:49:25;;;;;;;4.28;1.38;;;;;;;;;;5103709;28;20044;-80
2022/12/26 11:51:52;;;;;;;3.35;1.27;;;;;;;;;;5102401;28;20078;-78
2022/12/26 11:54:25;;;;;;;3.47;1.27;;;;;;;;;;5078030;28;20032;-80
2022/12/26 11:57:20;;;;;;;4.82;1.20;;;;;;;;;;5077984;28;20028;-79
2022/12/26 11:59:47;;;;;;;16.42;1.30;;;;;;;;;;5078210;28;20024;-80
2022/12/26 12:02:21;;;;;;;8.23;1.27;;;;;;;;;;5094973;28;20028;-79
2022/12/26 12:04:48;;;;;;;3.28;1.38;;;;;;;;;;5096047;28;20035;-78
2022/12/26 12:07:28;;;;;;;3.30;1.23;;;;;;;;;;5094970;28;20045;-77
2022/12/26 12:10:21;;;;;;;6.82;1.48;;;;;;;;;;5095921;28;20023;-79
2022/12/26 12:13:03;;;;;;;3.03;1.17;;;;;;;;;;5096214;28;20481;-79
2022/12/26 12:15:40;;;;;;;2.13;1.20;;;;;;;;;;5077740;28;20025;-80
2022/12/26 12:18:20;;;;;;;5.68;1.13;;;;;;;;;;5094661;28;20020;-80
2022/12/26 12:21:03;;;;;;;2.78;1.30;;;;;;;;;;5094885;28;20024;-79
2022/12/26 12:23:33;;;;;;;3.73;1.23;;;;;;;;;;5096373;28;20117;-79
2022/12/26 12:26:01;;;;;;;6.30;1.23;;;;;;;;;;5094182;28;20060;-79
2022/12/26 12:28:51;;;;;;;2.65;1.23;;;;;;;;;;5095893;28;20077;-79
2022/12/26 12:31:22;;;;;;;2.00;1.00;;;;;;;;;;5095507;28;20427;-80
2022/12/26 12:33:55;;;;;;;7.43;1.50;;;;;;;;;;5095831;28;20047;-79
2022/12/26 12:36:32;;;;;;;4.15;1.15;;;;;;;;;;5094249;28;20386;-79
2022/12/26 12:39:15;;;;;;;3.45;1.70;;;;;;;;;;5095757;28;20107;-80
2022/12/26 12:41:47;;;;;;;3.60;1.27;;;;;;;;;;5094205;28;20038;-80
2022/12/26 12:44:20;;;;;;;3.47;1.10;;;;;;;;;;5094046;28;20077;-79
2022/12/26 12:47:33;;;;;;;5.20;1.50;;;;;;;;;;5094057;28;20498;-79
2022/12/26 12:50:25;;;;;;;4.25;1.40;;;;;;;;;;5013361;28;20045;-79
2022/12/26 12:53:17;;;;;;;2.05;1.15;;;;;;;;;;4996930;28;20065;-79
2022/12/26 12:55:59;;;;;;;4.78;1.30;;;;;;;;;;5013316;28;20034;-80
2022/12/26 12:58:42;;;;;;;1.40;1.00;;;;;;;;;;5013401;28;20543;-80
2022/12/26 13:01:19;;;;;;;6.78;1.00;;;;;;;;;;5012923;28;20041;-80
2022/12/26 13:03:50;;;;;;;4.18;1.35;;;;;;;;;;4996967;28;20037;-79
2022/12/26 13:06:21;;;;;;;1.80;1.10;;;;;;;;;;5013271;28;20171;-79
2022/12/26 13:08:57;;;;;;;2.28;1.23;;;;;;;;;;4996487;28;20497;-77
2022/12/26 13:11:34;;;;;;;2.72;1.30;;;;;;;;;;4996994;28;20377;-78
2022/12/26 13:14:02;;;;;;;3.13;1.30;;;;;;;;;;5012948;28;20034;-77
2022/12/26 13:16:32;;;;;;;3.95;1.50;;;;;;;;;;5018394;28;20030;-77
2022/12/26 13:19:03;;;;;;;1.45;1.00;;;;;;;;;;5013230;28;20574;-77
2022/12/26 13:21:35;;;;;;;2.53;1.15;;;;;;;;;;5086909;28;20066;-77
2022/12/26 13:24:23;;;;;;;2.58;1.30;;;;;;;;;;5101665;28;20020;-77
2022/12/26 13:26:51;;;;;;;1.40;1.10;;;;;;;;;;5104232;28;20020;-76
2022/12/26 13:29:26;;;;;;;1.38;0.90;;;;;;;;;;5103582;28;20099;-77
2022/12/26 13:31:51;;;;;;;5.13;1.20;;;;;;;;;;5101541;28;20019;-77
2022/12/26 13:34:18;;;;;;;2.90;0.95;;;;;;;;;;5103808;28;20035;-76
2022/12/26 13:36:45;;;;;;;2.13;1.05;;;;;;;;;;5097262;28;20078;-77
2022/12/26 13:39:22;;;;;;;3.08;0.90;;;;;;;;;;5093190;28;20023;-77
2022/12/26 13:44:48;;;;;;;4.45;1.10;;;;;;;;;;5093551;28;20054;-75
2022/12/26 13:47:32;;;;;;;3.30;1.10;;;;;;;;;;5095832;28;20126;-76
2022/12/26 13:49:58;;;;;;;4.18;1.23;;;;;;;;;;5104899;28;20019;-75
2022/12/26 13:52:32;;;;;;;2.95;1.20;;;;;;;;;;5103402;28;20032;-76
2022/12/26 13:55:03;;;;;;;4.90;1.13;;;;;;;;;;5103537;28;20496;-76
2022/12/26 13:57:41;;;;;;;3.10;1.10;;;;;;;;;;5104514;28;20386;-76
2022/12/26 14:00:15;;;;;;;13.43;1.48;;;;;;;;;;5102976;28;20020;-75
2022/12/26 14:03:19;;;;;;;2.97;1.02;;;;;;;;;;5104106;28;20036;-75
2022/12/26 14:06:02;;;;;;;1.67;1.10;;;;;;;;;;5102884;28;20024;-75
2022/12/26 14:08:59;;;;;;;4.10;1.30;;;;;;;;;;5103964;28;20509;-75
2022/12/26 14:11:40;;;;;;;2.17;1.10;;;;;;;;;;5089724;28;20036;-76
2022/12/26 14:14:11;;;;;;;4.18;1.20;;;;;;;;;;5104029;28;20056;-76
2022/12/26 14:16:40;;;;;;;3.25;1.05;;;;;;;;;;5101370;28;20385;-76
2022/12/26 14:19:19;;;;;;;2.03;1.00;;;;;;;;;;5100780;28;20033;-78
2022/12/26 14:21:59;;;;;;;2.92;1.40;;;;;;;;;;5102670;28;20024;-76
2022/12/26 14:24:50;;;;;;;2.55;0.90;;;;;;;;;;5102548;28;20137;-75
2022/12/26 14:27:28;;;;;;;5.38;1.15;;;;;;;;;;5089087;28;20088;-76
2022/12/26 14:30:44;;;;;;;0.93;0.80;;;;;;;;;;5102011;28;20016;-77
2022/12/26 14:33:16;;;;;;;2.28;1.10;;;;;;;;;;5077354;28;20128;-77
2022/12/26 14:36:05;;;;;;;5.15;1.13;;;;;;;;;;5102477;28;20072;-78
2022/12/26 14:38:57;;;;;;;2.75;1.00;;;;;;;;;;5102322;28;20031;-77
2022/12/26 14:44:17;;;;;;;1.75;1.20;;;;;;;;;;5103731;28;20031;-77
2022/12/26 14:46:42;;;;;;;3.17;1.50;;;;;;;;;;5102411;28;20024;-75
2022/12/26 14:49:20;;;;;;;16.23;1.80;;;;;;;;;;5105464;28;20468;-75
2022/12/26 14:51:46;;;;;;;3.08;1.13;;;;;;;;;;5107723;28;20031;-75
2022/12/26 14:54:23;;;;;;;2.80;0.95;;;;;;;;;;5109922;28;20027;-77
2022/12/26 14:56:50;;;;;;;4.38;1.20;;;;;;;;;;5111182;28;20026;-77
2022/12/26 14:59:18;;;;;;;3.97;1.40;;;;;;;;;;5105045;28;20102;-78
2022/12/26 15:01:47;;;;;;;4.32;1.00;;;;;;;;;;5106135;28;20023;-79
2022/12/26 15:04:39;;;;;;;4.30;1.40;;;;;;;;;;5105541;28;20024;-79
2022/12/26 15:07:23;;;;;;;5.20;1.80;;;;;;;;;;5106453;28;20043;-78
2022/12/26 15:09:57;;;;;;;1.85;1.15;;;;;;;;;;5107487;28;20059;-77
2022/12/26 15:12:37;;;;;;;3.17;1.50;;;;;;;;;;5106757;28;20501;-78
2022/12/26 15:15:30;;;;;;;4.35;1.55;;;;;;;;;;5102280;28;20497;-77
2022/12/26 15:18:29;;;;;;;4.22;1.33;;;;;;;;;;5104691;28;20042;-78
2022/12/26 15:21:36;;;;;;;3.20;1.38;;;;;;;;;;5104622;28;20047;-78
2022/12/26 15:24:10;;;;;;;2.75;1.20;;;;;;;;;;5052250;28;20047;-76
2022/12/26 15:26:57;;;;;;;2.85;1.30;;;;;;;;;;5096902;28;20024;-78
2022/12/26 15:30:00;;;;;;;2.97;1.25;;;;;;;;;;5096677;28;20107;-77
2022/12/26 15:32:40;;;;;;;3.95;1.42;;;;;;;;;;5092619;28;20047;-78
2022/12/26 15:35:20;;;;;;;3.53;1.30;;;;;;;;;;5096763;28;20028;-78
2022/12/26 15:38:04;;;;;;;3.45;1.38;;;;;;;;;;5095343;28;20395;-78
2022/12/26 15:40:41;;;;;;;4.57;1.60;;;;;;;;;;5096485;28;20111;-77
2022/12/26 15:43:12;;;;;;;3.50;1.30;;;;;;;;;;5095928;28;20035;-78
2022/12/26 15:45:50;;;;;;;7.55;1.55;;;;;;;;;;5096462;28;20604;-77
2022/12/26 15:48:24;;;;;;;1.77;1.20;;;;;;;;;;5095139;28;20043;-78
2022/12/26 15:51:01;;;;;;;3.88;1.60;;;;;;;;;;5096376;28;20020;-80
2022/12/26 15:53:57;;;;;;;2.72;1.20;;;;;;;;;;5095138;28;20027;-79
2022/12/26 15:56:37;;;;;;;2.45;1.38;;;;;;;;;;5094997;28;20019;-77
2022/12/26 15:59:21;;;;;;;3.45;1.27;;;;;;;;;;5096526;28;20031;-77
2022/12/26 16:01:51;;;;;;;5.88;1.50;;;;;;;;;;5095520;28;20073;-78
2022/12/26 16:04:25;;;;;;;4.30;1.20;;;;;;;;;;5096317;28;20028;-78
2022/12/26 16:06:57;;;;;;;4.00;1.48;;;;;;;;;;5096487;28;20052;-77
2022/12/26 16:09:35;;;;;;;3.28;1.45;;;;;;;;;;5099153;28;20042;-77
2022/12/26 16:12:01;;;;;;;3.67;1.48;;;;;;;;;;5105692;28;20047;-77
2022/12/26 16:14:34;;;;;;;2.67;1.50;;;;;;;;;;5087969;28;20482;-77
2022/12/26 16:17:16;;;;;;;4.85;1.40;;;;;;;;;;5103633;28;20024;-77
2022/12/26 16:19:44;;;;;;;4.30;1.90;;;;;;;;;;5104054;28;20031;-77
2022/12/26 16:25:06;;;;;;;4.28;1.73;;;;;;;;;;5105147;28;20039;-78
2022/12/26 16:27:35;;;;;;;5.30;1.70;;;;;;;;;;5093291;28;20157;-76
2022/12/26 16:30:05;;;;;;;3.50;1.73;;;;;;;;;;5102315;28;20020;-77
2022/12/26 16:32:37;;;;;;;8.80;1.48;;;;;;;;;;5102286;28;20027;-78
2022/12/26 16:35:04;;;;;;;3.70;1.80;;;;;;;;;;5101521;28;20107;-77
2022/12/26 16:37:30;;;;;;;7.03;2.28;;;;;;;;;;5093946;28;20023;-78
2022/12/26 16:40:17;;;;;;;4.78;1.90;;;;;;;;;;5093724;28;20028;-77
2022/12/26 16:42:49;;;;;;;4.32;1.83;;;;;;;;;;5093672;28;20032;-78
2022/12/26 16:45:18;;;;;;;5.72;1.80;;;;;;;;;;5093524;28;20024;-76
2022/12/26 16:47:44;;;;;;;5.53;2.22;;;;;;;;;;5094114;28;20490;-76
2022/12/26 16:50:18;;;;;;;5.15;1.90;;;;;;;;;;5095857;28;20024;-76
2022/12/26 16:52:44;;;;;;;3.05;1.70;;;;;;;;;;5094050;28;20521;-76
2022/12/26 16:55:30;;;;;;;4.60;1.90;;;;;;;;;;5093900;28;20032;-77
2022/12/26 16:57:58;;;;;;;10.23;1.80;;;;;;;;;;5095177;28;20027;-75
2022/12/26 17:00:24;;;;;;;3.33;1.77;;;;;;;;;;5095245;28;20027;-80
2022/12/26 17:02:51;;;;;;;4.40;1.77;;;;;;;;;;5094475;28;20036;-77
2022/12/26 17:05:21;;;;;;;12.77;2.65;;;;;;;;;;5093905;28;20462;-76
2022/12/26 17:07:48;;;;;;;3.20;1.83;;;;;;;;;;5093795;28;20031;-75
2022/12/26 17:10:26;;;;;;;5.57;2.13;;;;;;;;;;5076799;28;20119;-76
2022/12/26 17:12:53;;;;;;;5.18;2.20;;;;;;;;;;5093142;28;20031;-76
2022/12/26 17:15:22;;;;;;;6.55;2.45;;;;;;;;;;5093836;28;20482;-76
2022/12/26 17:17:47;;;;;;;8.70;2.53;;;;;;;;;;5094753;28;20016;-76
2022/12/26 17:20:21;;;;;;;7.63;2.92;;;;;;;;;;5094609;28;20032;-76
2022/12/26 17:22:48;;;;;;;7.50;2.80;;;;;;;;;;5094903;28;20020;-76
2022/12/26 17:25:20;;;;;;;7.55;2.05;;;;;;;;;;5093289;28;20032;-77
2022/12/26 17:27:47;;;;;;;5.47;2.50;;;;;;;;;;5093296;28;20031;-77
2022/12/26 17:30:26;;;;;;;6.55;2.63;;;;;;;;;;5093413;28;20020;-77